Time;durP1;ratioP1;P1;durP2;ratioP2;P2;SDS_P1;SDS_P2;PMS_P1;PMS_P2;Temp;Humidity;BMP_temperature;BMP_pressure;BME280_temperature;BME280_humidity;BME280_pressure;Samples;Min_cycle;Max_cycle;Signal;HPM_P1;HPM_P2
2022/12/22 03:25:53;;;;;;;3.42;1.05;;;14.60;99.90;;;;;;5040485;28;20041;-73
2022/12/22 03:28:21;;;;;;;4.97;1.20;;;14.70;99.90;;;;;;5035326;28;20037;-73
2022/12/22 03:31:05;;;;;;;4.38;1.52;;;14.70;99.90;;;;;;5044951;28;20044;-72
2022/12/22 03:33:31;;;;;;;4.75;1.40;;;14.70;99.90;;;;;;5035039;28;20143;-73
2022/12/22 03:35:58;;;;;;;5.40;1.23;;;14.80;99.90;;;;;;5037388;28;20037;-73
2022/12/22 03:38:24;;;;;;;4.45;1.48;;;14.70;99.90;;;;;;5035631;28;20547;-73
2022/12/22 03:40:50;;;;;;;4.32;1.30;;;14.70;99.90;;;;;;5051998;28;20078;-72
2022/12/22 03:49:08;;;;;;;5.05;1.65;;;14.70;99.90;;;;;;5036202;28;20051;-73
2022/12/22 03:51:47;;;;;;;2.95;1.25;;;14.70;99.90;;;;;;5000524;28;20092;-73
2022/12/22 03:54:15;;;;;;;3.67;1.40;;;14.70;99.90;;;;;;5015761;28;20103;-74
2022/12/22 03:56:42;;;;;;;6.18;1.60;;;14.70;99.90;;;;;;5015733;28;20034;-73
2022/12/22 03:59:08;;;;;;;4.80;1.30;;;14.60;99.90;;;;;;5019889;28;20109;-72
2022/12/22 04:01:38;;;;;;;5.22;1.52;;;14.60;99.90;;;;;;5015608;28;20049;-73
2022/12/22 04:04:04;;;;;;;5.88;1.02;;;14.50;99.90;;;;;;5026396;28;20041;-73
2022/12/22 04:06:30;;;;;;;4.35;1.38;;;14.60;99.90;;;;;;5019823;28;20116;-73
2022/12/22 04:08:56;;;;;;;4.68;1.33;;;14.60;99.90;;;;;;5024546;28;20121;-74
2022/12/22 04:14:08;;;;;;;3.50;1.40;;;14.60;99.90;;;;;;5015262;28;20952;-72
2022/12/22 04:16:34;;;;;;;3.35;1.30;;;14.60;99.90;;;;;;5018896;28;20049;-73
2022/12/22 04:18:59;;;;;;;3.80;1.30;;;14.70;99.90;;;;;;5017768;28;20504;-73
2022/12/22 04:21:26;;;;;;;6.10;1.10;;;14.70;99.90;;;;;;5020240;28;20505;-73
2022/12/22 04:23:52;;;;;;;4.45;1.25;;;14.70;99.90;;;;;;5020409;28;20453;-73
2022/12/22 04:26:20;;;;;;;4.65;1.17;;;14.90;99.90;;;;;;5020761;28;20473;-73
2022/12/22 04:28:46;;;;;;;3.80;1.30;;;14.90;99.90;;;;;;5037317;28;20065;-73
2022/12/22 04:31:14;;;;;;;3.13;1.00;;;14.90;99.90;;;;;;5036943;28;20595;-72
2022/12/22 04:33:39;;;;;;;3.90;1.23;;;14.80;99.90;;;;;;5053316;28;20044;-72
2022/12/22 04:36:06;;;;;;;4.30;1.13;;;14.90;99.90;;;;;;5054318;28;20040;-74
2022/12/22 04:38:32;;;;;;;5.63;1.42;;;14.90;99.90;;;;;;5033172;28;20034;-73
2022/12/22 04:40:58;;;;;;;4.55;1.40;;;14.90;99.90;;;;;;5038783;28;20029;-72
2022/12/22 04:43:24;;;;;;;5.20;1.17;;;14.80;99.90;;;;;;5033795;28;20423;-73
2022/12/22 04:45:53;;;;;;;4.38;1.08;;;14.80;99.90;;;;;;5040511;28;20090;-73
2022/12/22 04:48:20;;;;;;;4.55;1.50;;;15.00;99.90;;;;;;5037717;28;20460;-73
2022/12/22 04:50:50;;;;;;;3.70;1.08;;;14.90;99.90;;;;;;5026896;28;20043;-73
2022/12/22 04:53:16;;;;;;;4.13;1.10;;;15.00;99.90;;;;;;5047516;28;20128;-72
2022/12/22 04:56:00;;;;;;;5.55;1.73;;;14.90;99.90;;;;;;5038159;28;20128;-73
2022/12/22 04:58:27;;;;;;;4.18;1.00;;;14.70;99.90;;;;;;5033936;28;20044;-73
2022/12/22 05:00:53;;;;;;;4.55;1.63;;;14.70;99.90;;;;;;5034472;28;20064;-74
2022/12/22 05:03:19;;;;;;;4.35;1.95;;;14.60;99.90;;;;;;5040803;28;20381;-73
2022/12/22 05:05:45;;;;;;;5.90;2.17;;;14.30;99.90;;;;;;5034133;28;20029;-72
2022/12/22 05:08:11;;;;;;;6.20;1.85;;;14.00;99.90;;;;;;5032125;28;20044;-73
2022/12/22 05:10:37;;;;;;;6.28;1.63;;;13.80;99.90;;;;;;5037688;28;20572;-73
2022/12/22 05:13:03;;;;;;;4.25;1.92;;;13.70;99.90;;;;;;5037703;28;20052;-73
2022/12/22 05:15:33;;;;;;;4.68;1.95;;;13.60;99.90;;;;;;5037775;28;20063;-73
2022/12/22 05:18:00;;;;;;;5.15;1.77;;;13.40;99.90;;;;;;5035634;28;20047;-72
2022/12/22 05:20:27;;;;;;;3.97;1.63;;;13.40;99.90;;;;;;5043627;28;20037;-72
2022/12/22 05:22:53;;;;;;;4.80;1.88;;;13.40;99.90;;;;;;5041316;28;20044;-74
2022/12/22 05:25:20;;;;;;;8.57;2.22;;;13.40;99.90;;;;;;5036741;28;20141;-73
2022/12/22 05:27:47;;;;;;;;;;;13.30;99.90;;;;;;5036963;28;20110;-73
2022/12/22 05:30:14;;;;;;;4.75;2.10;;;13.20;99.90;;;;;;5033256;28;19959;-72
2022/12/22 05:32:40;;;;;;;5.78;2.05;;;13.20;99.90;;;;;;5052745;28;20042;-73
2022/12/22 05:35:07;;;;;;;7.22;2.75;;;13.20;99.90;;;;;;5037360;28;20044;-73
2022/12/22 05:37:32;;;;;;;;;;;13.10;99.90;;;;;;5040129;28;20093;-73
2022/12/22 05:39:58;;;;;;;10.07;2.67;;;13.00;99.90;;;;;;5036441;28;20399;-73
2022/12/22 05:42:36;;;;;;;4.43;2.00;;;13.10;99.90;;;;;;5036590;28;20376;-73
2022/12/22 05:45:14;;;;;;;6.00;2.70;;;13.30;99.90;;;;;;5042609;28;20452;-72
2022/12/22 05:47:41;;;;;;;5.88;1.80;;;13.30;99.90;;;;;;5035015;28;20133;-72
2022/12/22 05:50:09;;;;;;;4.95;1.42;;;13.50;99.90;;;;;;5034401;28;20037;-73
2022/12/22 05:52:35;;;;;;;4.60;1.77;;;13.70;99.90;;;;;;5042424;28;20041;-73
2022/12/22 05:55:01;;;;;;;4.85;1.98;;;13.80;99.90;;;;;;5044165;28;20037;-73
2022/12/22 05:57:27;;;;;;;4.45;1.95;;;13.70;99.90;;;;;;5049398;28;20034;-72
2022/12/22 05:59:53;;;;;;;6.47;2.28;;;13.60;99.90;;;;;;5037541;28;20128;-72
2022/12/22 06:02:18;;;;;;;6.13;1.92;;;13.60;99.90;;;;;;5023178;28;20069;-73
2022/12/22 06:04:44;;;;;;;4.38;1.70;;;13.70;99.90;;;;;;5041866;28;20155;-73
2022/12/22 06:07:11;;;;;;;5.07;1.65;;;13.60;99.90;;;;;;5037732;28;20704;-74
2022/12/22 06:09:36;;;;;;;4.90;1.70;;;13.90;99.90;;;;;;5039752;28;20025;-73
2022/12/22 06:12:04;;;;;;;5.93;1.75;;;13.80;99.90;;;;;;5043888;28;20425;-73
2022/12/22 06:14:30;;;;;;;4.68;1.65;;;13.90;99.90;;;;;;5045926;28;20110;-73
2022/12/22 06:16:56;;;;;;;4.35;1.60;;;14.00;99.90;;;;;;5047391;28;20037;-73
2022/12/22 06:19:22;;;;;;;5.57;1.90;;;14.00;99.90;;;;;;5039373;28;20950;-73
2022/12/22 06:21:47;;;;;;;4.90;1.50;;;14.10;99.90;;;;;;5056267;28;20116;-73
2022/12/22 06:24:13;;;;;;;4.97;2.13;;;14.20;99.90;;;;;;5041894;28;20408;-73
2022/12/22 06:26:39;;;;;;;5.38;1.60;;;14.10;99.90;;;;;;5039863;28;20142;-73
2022/12/22 06:29:05;;;;;;;3.20;1.20;;;14.10;99.90;;;;;;5037274;28;20040;-74
2022/12/22 06:31:31;;;;;;;5.07;1.30;;;14.20;99.90;;;;;;5038187;28;20053;-73
2022/12/22 06:33:56;;;;;;;4.90;1.10;;;14.20;99.90;;;;;;5038766;28;20120;-73
2022/12/22 06:36:22;;;;;;;4.38;1.02;;;14.20;99.90;;;;;;5037997;28;20186;-73
2022/12/22 06:38:48;;;;;;;4.20;1.52;;;14.20;99.90;;;;;;5037166;28;20496;-72
2022/12/22 06:43:07;;;;;;;3.90;1.60;;;14.20;99.90;;;;;;5038287;28;20021;-74
2022/12/22 06:44:00;;;;;;;6.28;2.10;;;14.20;99.90;;;;;;5032755;28;20037;-72
2022/12/22 06:46:26;;;;;;;4.90;1.90;;;14.20;99.90;;;;;;5053125;28;20029;-73
2022/12/22 06:48:52;;;;;;;6.47;1.67;;;14.10;99.90;;;;;;5038340;28;20041;-73
2022/12/22 06:51:17;;;;;;;5.30;2.10;;;14.10;99.90;;;;;;5040783;28;20504;-74
2022/12/22 06:53:43;;;;;;;4.97;1.60;;;14.10;99.90;;;;;;5038309;28;20044;-73
2022/12/22 06:56:09;;;;;;;9.27;1.98;;;14.10;99.90;;;;;;5043017;28;20298;-74
2022/12/22 06:58:35;;;;;;;4.30;1.60;;;14.10;99.90;;;;;;5029068;28;20032;-74
2022/12/22 07:01:01;;;;;;;5.00;1.90;;;14.10;99.90;;;;;;5048696;28;20045;-73
2022/12/22 07:03:26;;;;;;;6.63;1.70;;;14.10;99.90;;;;;;5039181;28;20118;-73
2022/12/22 07:05:52;;;;;;;6.50;2.00;;;14.10;99.90;;;;;;5044348;28;20178;-73
2022/12/22 07:08:18;;;;;;;4.85;1.45;;;14.00;99.90;;;;;;5043935;28;20037;-73
2022/12/22 07:10:56;;;;;;;4.85;1.42;;;14.00;99.90;;;;;;5053415;28;20025;-73
2022/12/22 07:13:23;;;;;;;4.90;1.55;;;14.10;99.90;;;;;;5051568;28;20045;-74
2022/12/22 07:15:49;;;;;;;7.47;2.30;;;14.00;99.90;;;;;;5051386;28;20152;-73
2022/12/22 07:18:15;;;;;;;4.40;1.23;;;13.90;99.90;;;;;;5034200;28;20090;-74
2022/12/22 07:20:41;;;;;;;4.10;1.30;;;14.10;99.90;;;;;;5038064;28;20037;-74
2022/12/22 07:23:07;;;;;;;4.65;1.42;;;14.10;99.90;;;;;;5050570;28;20061;-73
2022/12/22 07:25:33;;;;;;;6.13;1.98;;;14.10;99.90;;;;;;5037957;28;20037;-73
2022/12/22 07:28:02;;;;;;;6.00;1.90;;;14.10;99.90;;;;;;5056298;28;20060;-73
2022/12/22 07:30:27;;;;;;;9.10;1.63;;;14.10;99.90;;;;;;5049147;28;20409;-74
2022/12/22 07:32:53;;;;;;;4.68;1.60;;;14.20;99.90;;;;;;5037909;28;20025;-73
2022/12/22 07:35:19;;;;;;;5.90;1.45;;;14.20;99.90;;;;;;5035329;28;20044;-74
2022/12/22 07:37:47;;;;;;;5.72;1.80;;;14.20;99.90;;;;;;5038191;28;20025;-74
2022/12/22 07:40:14;;;;;;;5.25;1.65;;;14.20;99.90;;;;;;5041941;28;20038;-73
2022/12/22 07:42:44;;;;;;;4.22;1.40;;;14.30;99.90;;;;;;5048786;28;20500;-73
2022/12/22 07:45:12;;;;;;;6.38;1.48;;;14.30;99.90;;;;;;5054378;28;20049;-76
2022/12/22 07:47:40;;;;;;;5.32;1.77;;;14.30;99.90;;;;;;5049872;28;20044;-74
2022/12/22 07:50:24;;;;;;;6.43;1.70;;;14.30;99.90;;;;;;5055012;28;20480;-74
2022/12/22 07:52:55;;;;;;;7.55;1.73;;;14.30;99.90;;;;;;5040907;28;20037;-74
2022/12/22 07:55:26;;;;;;;6.07;1.95;;;14.30;99.90;;;;;;5039664;28;20155;-74
2022/12/22 07:57:54;;;;;;;5.93;1.92;;;14.20;99.90;;;;;;5040147;28;20460;-74
2022/12/22 08:00:22;;;;;;;6.20;2.10;;;14.20;99.90;;;;;;5038446;28;20052;-74
2022/12/22 08:02:53;;;;;;;4.97;1.60;;;14.20;99.90;;;;;;5038677;28;20041;-74
2022/12/22 08:05:21;;;;;;;5.00;1.35;;;14.30;99.90;;;;;;5036070;28;20117;-74
2022/12/22 08:07:48;;;;;;;3.90;1.38;;;14.30;99.90;;;;;;5042896;28;20037;-74
2022/12/22 08:10:17;;;;;;;5.30;1.92;;;14.40;99.90;;;;;;5033024;28;20065;-73
2022/12/22 08:12:44;;;;;;;6.07;2.00;;;14.50;99.90;;;;;;5048902;28;21033;-74
2022/12/22 08:15:10;;;;;;;7.38;1.48;;;14.80;99.90;;;;;;5023424;28;20132;-74
2022/12/22 08:17:36;;;;;;;4.72;1.65;;;15.20;99.90;;;;;;5039350;28;20471;-76
2022/12/22 08:20:05;;;;;;;4.90;2.00;;;15.30;99.90;;;;;;5054180;28;20124;-75
2022/12/22 08:22:31;;;;;;;4.07;1.67;;;15.70;99.90;;;;;;5035551;28;20067;-73
2022/12/22 08:24:57;;;;;;;7.40;1.85;;;15.70;99.90;;;;;;5034968;28;20052;-73
2022/12/22 08:27:30;;;;;;;3.65;1.65;;;16.30;99.90;;;;;;5039990;28;20056;-75
2022/12/22 08:30:01;;;;;;;4.05;1.40;;;16.50;99.90;;;;;;5054900;28;20030;-74
2022/12/22 08:32:27;;;;;;;4.90;1.63;;;16.60;99.90;;;;;;5041788;28;20107;-73
2022/12/22 08:34:53;;;;;;;5.38;1.40;;;16.50;99.90;;;;;;5036150;28;20047;-74
2022/12/22 08:37:24;;;;;;;7.43;2.08;;;16.50;99.90;;;;;;5046770;28;20037;-74
2022/12/22 08:39:56;;;;;;;5.18;2.20;;;16.80;99.90;;;;;;5040647;28;20433;-74
2022/12/22 08:42:25;;;;;;;4.82;1.67;;;17.30;99.90;;;;;;5049894;28;22805;-74
2022/12/22 08:44:52;;;;;;;4.20;1.35;;;17.30;99.90;;;;;;5013770;28;20527;-73
2022/12/22 08:47:20;;;;;;;5.85;1.90;;;17.10;99.90;;;;;;5033371;28;20116;-74
2022/12/22 08:49:46;;;;;;;6.43;1.75;;;17.00;99.90;;;;;;5037865;28;20114;-74
2022/12/22 08:52:12;;;;;;;5.75;1.83;;;16.60;99.90;;;;;;5005880;28;20037;-74
2022/12/22 08:54:39;;;;;;;6.70;1.60;;;16.30;99.90;;;;;;5019511;28;20036;-74
2022/12/22 08:57:04;;;;;;;3.42;1.48;;;15.90;99.90;;;;;;5036266;28;20057;-73
2022/12/22 08:59:30;;;;;;;5.50;1.75;;;15.50;99.90;;;;;;5052118;28;20500;-75
2022/12/22 09:01:56;;;;;;;5.68;1.80;;;15.40;99.90;;;;;;5036223;28;20076;-74
2022/12/22 09:04:24;;;;;;;5.57;1.90;;;15.10;99.90;;;;;;5032980;28;20052;-74
2022/12/22 09:06:52;;;;;;;3.90;1.30;;;15.00;99.90;;;;;;5033905;28;20075;-74
2022/12/22 09:09:18;;;;;;;3.95;1.73;;;14.90;99.90;;;;;;5042666;28;20071;-73
2022/12/22 09:11:44;;;;;;;4.82;1.92;;;15.00;99.90;;;;;;5026600;28;20064;-74
2022/12/22 09:14:11;;;;;;;7.32;2.17;;;15.00;99.90;;;;;;5053180;28;20099;-74
2022/12/22 09:16:40;;;;;;;3.95;1.45;;;15.00;99.90;;;;;;5054949;28;20446;-74
2022/12/22 09:19:06;;;;;;;5.28;1.20;;;14.90;99.90;;;;;;5033081;28;20105;-75
2022/12/22 09:21:33;;;;;;;7.15;1.92;;;14.90;99.90;;;;;;5031659;28;28214;-74
2022/12/22 09:23:59;;;;;;;5.47;1.65;;;15.00;99.90;;;;;;5041515;28;20048;-73
2022/12/22 09:26:27;;;;;;;5.85;1.83;;;15.30;99.90;;;;;;5034423;28;20029;-74
2022/12/22 09:28:54;;;;;;;4.55;1.80;;;15.60;99.90;;;;;;5024368;28;20044;-75
2022/12/22 09:31:22;;;;;;;6.10;1.70;;;15.80;99.90;;;;;;5036048;28;20603;-73
2022/12/22 09:33:48;;;;;;;6.10;2.10;;;15.90;99.90;;;;;;5032402;28;20671;-73
2022/12/22 09:36:23;;;;;;;4.85;1.52;;;16.10;99.90;;;;;;5053796;28;20517;-74
2022/12/22 09:38:51;;;;;;;5.35;1.55;;;16.10;99.90;;;;;;5032376;28;20040;-74
2022/12/22 09:42:00;;;;;;;7.65;1.90;;;15.90;99.90;;;;;;5042132;28;20041;-74
2022/12/22 09:44:33;;;;;;;5.82;1.85;;;15.60;99.90;;;;;;4978112;28;20441;-74
2022/12/22 09:47:03;;;;;;;5.22;1.98;;;15.50;99.90;;;;;;5027411;28;20839;-75
2022/12/22 09:49:29;;;;;;;5.43;1.83;;;15.50;99.90;;;;;;5035992;28;20037;-74
2022/12/22 09:52:01;;;;;;;6.07;1.92;;;15.50;99.90;;;;;;5037486;28;20129;-73
2022/12/22 09:54:28;;;;;;;5.65;2.00;;;15.50;99.90;;;;;;5042607;28;20033;-75
2022/12/22 09:56:55;;;;;;;4.60;1.88;;;15.50;99.90;;;;;;5026652;28;20099;-74
2022/12/22 09:59:27;;;;;;;4.45;1.95;;;15.30;99.90;;;;;;5032711;28;22269;-74
2022/12/22 10:02:32;;;;;;;5.85;2.17;;;15.30;99.90;;;;;;5035323;28;20037;-74
2022/12/22 10:05:54;;;;;;;7.65;2.70;;;15.20;99.90;;;;;;5033590;28;20432;-74
2022/12/22 10:08:33;;;;;;;5.18;2.15;;;15.00;99.90;;;;;;4985467;28;20784;-75
2022/12/22 10:10:59;;;;;;;9.95;2.70;;;15.10;99.90;;;;;;5006078;28;20042;-72
2022/12/22 10:13:24;;;;;;;6.80;2.65;;;15.10;99.90;;;;;;5013475;28;20072;-76
2022/12/22 10:15:52;;;;;;;4.65;2.05;;;15.00;99.90;;;;;;5010387;28;20044;-72
2022/12/22 10:18:28;;;;;;;5.60;2.35;;;14.90;99.90;;;;;;5016057;28;20545;-73
2022/12/22 10:21:14;;;;;;;6.93;2.85;;;14.90;99.90;;;;;;5046158;28;20048;-74
2022/12/22 10:23:44;;;;;;;5.22;2.72;;;15.80;99.90;;;;;;5036960;28;20574;-73
2022/12/22 10:26:22;;;;;;;6.65;3.10;;;16.50;99.90;;;;;;5038789;28;20865;-74
2022/12/22 10:28:57;;;;;;;8.70;3.10;;;16.70;99.90;;;;;;5032943;28;20037;-73
2022/12/22 10:31:26;;;;;;;5.53;2.88;;;16.90;99.90;;;;;;5031321;28;20041;-74
2022/12/22 10:33:55;;;;;;;8.48;3.42;;;17.20;99.90;;;;;;5036198;28;20938;-73
2022/12/22 10:36:27;;;;;;;6.82;3.47;;;18.00;99.90;;;;;;5040500;28;20132;-74
2022/12/22 10:39:07;;;;;;;6.88;2.67;;;17.20;99.90;;;;;;5046029;28;20140;-74
2022/12/22 10:41:41;;;;;;;7.00;3.25;;;17.90;99.90;;;;;;5034552;28;20248;-74
2022/12/22 10:44:12;;;;;;;6.55;4.20;;;18.10;99.90;;;;;;5033819;28;20443;-74
2022/12/22 10:46:45;;;;;;;6.63;3.33;;;18.60;99.90;;;;;;5044973;28;20046;-75
2022/12/22 10:49:14;;;;;;;5.82;2.78;;;17.90;99.90;;;;;;5030159;28;20044;-74
2022/12/22 10:51:42;;;;;;;8.00;3.22;;;18.40;99.90;;;;;;5037080;28;20033;-74
2022/12/22 10:54:08;;;;;;;6.85;2.67;;;18.40;99.90;;;;;;5031455;28;20033;-74
2022/12/22 10:56:36;;;;;;;6.78;3.75;;;19.20;99.90;;;;;;5038519;28;20033;-74
2022/12/22 10:59:02;;;;;;;6.60;3.22;;;19.40;99.90;;;;;;5053442;28;20401;-74
2022/12/22 11:01:34;;;;;;;7.05;3.00;;;19.90;99.90;;;;;;5032520;28;20033;-74
2022/12/22 11:04:22;;;;;;;6.80;2.88;;;20.10;99.80;;;;;;5035553;28;20388;-73
2022/12/22 11:06:48;;;;;;;6.13;2.55;;;20.10;99.80;;;;;;5048863;28;20033;-75
2022/12/22 11:09:17;;;;;;;5.13;2.45;;;20.70;99.70;;;;;;5039868;28;20045;-75
2022/12/22 11:11:58;;;;;;;7.85;3.00;;;20.70;98.70;;;;;;5037316;28;20053;-74
2022/12/22 11:14:39;;;;;;;6.68;2.67;;;21.00;98.70;;;;;;5043694;28;20075;-74
2022/12/22 11:17:14;;;;;;;5.57;3.45;;;21.00;98.80;;;;;;5052063;28;20067;-74
2022/12/22 11:19:43;;;;;;;6.78;2.63;;;20.90;99.20;;;;;;5036776;28;20064;-73
2022/12/22 11:22:27;;;;;;;7.43;2.72;;;20.70;98.10;;;;;;5032030;28;20499;-74
2022/12/22 11:24:56;;;;;;;6.38;2.75;;;20.80;98.60;;;;;;5037017;28;20033;-73
2022/12/22 11:27:34;;;;;;;5.68;2.50;;;20.80;98.80;;;;;;5044119;28;25929;-74
2022/12/22 11:30:11;;;;;;;6.03;2.92;;;21.70;98.00;;;;;;5034629;28;20056;-74
2022/12/22 11:32:44;;;;;;;7.28;2.70;;;22.10;97.80;;;;;;5037034;28;20037;-73
2022/12/22 11:35:22;;;;;;;6.82;2.85;;;21.60;97.90;;;;;;5055530;28;20041;-73
2022/12/22 11:38:05;;;;;;;;;;;22.40;97.10;;;;;;5044954;28;20045;-74
2022/12/22 11:40:40;;;;;;;4.63;1.90;;;21.90;97.10;;;;;;5031925;28;19916;-73
2022/12/22 11:43:22;;;;;;;6.15;3.25;;;23.00;96.60;;;;;;5047606;28;20048;-74
2022/12/22 11:46:02;;;;;;;6.10;3.45;;;23.00;96.70;;;;;;5033668;28;20032;-74
2022/12/22 11:48:46;;;;;;;;;;;23.20;96.50;;;;;;5033389;28;20036;-75
2022/12/22 11:51:41;;;;;;;6.90;3.25;;;21.90;97.20;;;;;;5033423;28;19913;-76
2022/12/22 11:54:28;;;;;;;6.53;2.60;;;21.80;97.50;;;;;;5020726;28;20037;-74
2022/12/22 11:57:04;;;;;;;15.15;3.75;;;22.20;97.40;;;;;;5033841;28;20107;-74
2022/12/22 11:59:40;;;;;;;5.72;2.63;;;21.90;97.30;;;;;;5022816;28;20041;-74
2022/12/22 12:02:48;;;;;;;7.18;3.97;;;21.40;97.30;;;;;;5047947;28;20064;-75
2022/12/22 12:05:56;;;;;;;5.90;4.15;;;22.40;97.20;;;;;;5032432;28;20041;-74
2022/12/22 12:08:33;;;;;;;6.47;3.10;;;22.20;97.30;;;;;;5032346;28;20048;-74
2022/12/22 12:11:34;;;;;;;6.85;3.72;;;21.70;97.20;;;;;;5053397;28;20061;-73
2022/12/22 12:14:32;;;;;;;6.35;4.07;;;21.90;97.10;;;;;;5035970;28;20041;-74
2022/12/22 12:17:12;;;;;;;5.75;2.90;;;21.80;97.20;;;;;;5033681;28;20040;-74
2022/12/22 12:20:11;;;;;;;5.63;3.58;;;22.30;96.80;;;;;;5036132;28;20033;-74
2022/12/22 12:22:57;;;;;;;7.22;2.72;;;22.40;97.00;;;;;;5028921;28;20044;-74
2022/12/22 12:25:23;;;;;;;5.25;2.15;;;21.80;96.40;;;;;;5045373;28;20033;-74
2022/12/22 12:28:19;;;;;;;6.05;3.10;;;20.70;98.00;;;;;;5030981;28;20044;-77
2022/12/22 12:30:55;;;;;;;5.60;3.30;;;21.80;97.70;;;;;;5031435;28;20084;-75
2022/12/22 12:33:35;;;;;;;8.73;3.50;;;22.00;96.80;;;;;;5039521;28;20097;-73
2022/12/22 12:36:27;;;;;;;9.50;3.42;;;22.00;97.20;;;;;;5033156;28;20139;-75
2022/12/22 12:39:10;;;;;;;7.05;3.60;;;22.80;96.50;;;;;;5022732;28;20044;-74
2022/12/22 12:42:15;;;;;;;6.97;3.78;;;21.90;96.60;;;;;;5029822;28;20037;-74
2022/12/22 12:44:42;;;;;;;6.97;2.53;;;22.20;96.60;;;;;;5037426;28;20049;-74
2022/12/22 12:47:27;;;;;;;5.72;3.70;;;22.60;96.30;;;;;;5034036;28;20142;-74
2022/12/22 12:49:59;;;;;;;5.45;2.25;;;22.60;96.20;;;;;;5035824;28;20068;-74
2022/12/22 12:52:47;;;;;;;5.28;1.92;;;22.40;96.60;;;;;;5025638;28;20252;-73
2022/12/22 12:55:27;;;;;;;7.30;2.92;;;23.10;96.30;;;;;;5018460;28;20112;-74
2022/12/22 12:57:52;;;;;;;5.00;2.63;;;23.30;95.80;;;;;;5039771;28;20399;-76
2022/12/22 13:00:48;;;;;;;5.00;2.85;;;22.60;95.70;;;;;;5029976;28;20088;-73
2022/12/22 13:03:25;;;;;;;4.95;2.88;;;22.90;95.80;;;;;;5012151;28;20143;-72
2022/12/22 13:05:54;;;;;;;5.00;1.90;;;23.30;95.40;;;;;;5036280;28;20064;-73
2022/12/22 13:08:25;;;;;;;5.13;2.50;;;23.30;95.70;;;;;;5037857;28;20106;-74
2022/12/22 13:10:54;;;;;;;8.68;4.32;;;23.30;95.70;;;;;;5057062;28;20062;-74
2022/12/22 13:13:23;;;;;;;7.07;2.78;;;22.70;95.40;;;;;;5052243;28;20098;-73
2022/12/22 13:16:09;;;;;;;4.82;2.38;;;23.40;95.40;;;;;;5057663;28;20446;-73
2022/12/22 13:18:37;;;;;;;6.38;3.90;;;23.30;95.50;;;;;;5042789;28;20072;-74
2022/12/22 13:21:08;;;;;;;6.47;2.95;;;23.40;95.40;;;;;;5057361;28;20086;-73
2022/12/22 13:23:41;;;;;;;7.65;3.08;;;24.10;95.40;;;;;;5043494;28;20437;-74
2022/12/22 13:26:36;;;;;;;5.68;3.10;;;24.00;94.90;;;;;;5038682;28;20045;-73
2022/12/22 13:29:26;;;;;;;6.47;4.15;;;24.40;94.70;;;;;;5040899;28;20114;-74
2022/12/22 13:31:55;;;;;;;5.60;3.20;;;23.90;94.90;;;;;;5036714;28;20041;-72
2022/12/22 13:34:44;;;;;;;5.75;3.38;;;23.40;94.60;;;;;;5061172;28;20131;-73
2022/12/22 13:37:16;;;;;;;6.82;3.38;;;24.50;94.50;;;;;;5040617;28;20061;-74
2022/12/22 13:40:02;;;;;;;5.88;2.70;;;25.00;94.00;;;;;;5042793;28;20083;-73
2022/12/22 13:42:29;;;;;;;6.13;2.78;;;24.90;94.10;;;;;;5044181;28;20556;-72
2022/12/22 13:44:55;;;;;;;5.90;3.10;;;24.70;94.30;;;;;;5044081;28;20545;-74
2022/12/22 13:47:21;;;;;;;6.45;4.00;;;24.70;93.90;;;;;;5041119;28;20078;-74
2022/12/22 13:49:47;;;;;;;6.45;3.13;;;24.30;94.30;;;;;;5040382;28;20064;-74
2022/12/22 13:52:17;;;;;;;6.53;2.83;;;23.20;95.10;;;;;;5039406;28;20034;-74
2022/12/22 13:54:45;;;;;;;6.75;2.90;;;23.10;95.50;;;;;;5060093;28;20060;-74
2022/12/22 13:57:21;;;;;;;5.97;3.22;;;23.10;95.00;;;;;;5045104;28;20076;-72
2022/12/22 13:59:50;;;;;;;6.45;2.70;;;23.90;94.80;;;;;;5056191;28;20467;-73
2022/12/22 14:02:19;;;;;;;7.75;3.92;;;24.10;94.60;;;;;;5042579;28;20037;-74
2022/12/22 14:05:12;;;;;;;7.90;3.03;;;24.70;94.30;;;;;;5059544;28;20094;-74
2022/12/22 14:07:39;;;;;;;9.32;2.53;;;23.60;95.00;;;;;;5061117;28;20032;-74
2022/12/22 14:10:12;;;;;;;5.50;2.33;;;23.10;95.10;;;;;;5042246;28;20044;-74
2022/12/22 14:12:43;;;;;;;9.75;3.00;;;22.90;95.30;;;;;;5054107;28;20038;-73
2022/12/22 14:15:18;;;;;;;9.57;3.45;;;22.70;95.70;;;;;;5018964;28;20095;-73
2022/12/22 14:17:44;;;;;;;6.45;3.03;;;22.30;96.10;;;;;;5030235;28;20038;-75
2022/12/22 14:20:23;;;;;;;6.45;2.95;;;21.70;96.70;;;;;;5021381;28;20046;-72
2022/12/22 14:23:04;;;;;;;3.55;1.35;;;21.60;97.00;;;;;;5019769;28;20042;-74
2022/12/22 14:25:37;;;;;;;7.32;2.33;;;21.00;97.20;;;;;;5040932;28;20046;-74
2022/12/22 14:28:11;;;;;;;7.43;2.30;;;20.90;97.60;;;;;;5043934;28;20071;-73
2022/12/22 14:30:42;;;;;;;6.70;2.78;;;20.80;97.80;;;;;;5042838;28;20431;-74
2022/12/22 14:33:26;;;;;;;6.50;1.67;;;21.10;97.50;;;;;;5056142;28;20101;-73
2022/12/22 14:36:11;;;;;;;5.70;2.10;;;20.90;97.70;;;;;;5054784;28;20031;-73
2022/12/22 14:38:43;;;;;;;7.15;2.13;;;21.30;97.30;;;;;;5051971;28;20033;-74
2022/12/22 14:41:45;;;;;;;;;;;22.20;96.40;;;;;;5036965;28;20447;-74
2022/12/22 14:44:39;;;;;;;4.35;1.30;;;22.60;95.70;;;;;;5038259;28;19913;-74
2022/12/22 14:47:13;;;;;;;7.63;2.10;;;22.40;95.80;;;;;;5032289;28;20095;-73
2022/12/22 14:49:58;;;;;;;6.22;2.10;;;21.60;96.60;;;;;;5037734;28;20354;-74
2022/12/22 14:52:28;;;;;;;;;;;21.40;96.90;;;;;;5032247;28;20205;-75
2022/12/22 14:54:55;;;;;;;5.18;1.60;;;21.00;97.10;;;;;;5031956;28;20397;-74
2022/12/22 14:57:39;;;;;;;6.43;2.38;;;21.20;97.10;;;;;;5030003;28;20041;-75
2022/12/22 15:00:34;;;;;;;5.47;2.00;;;21.00;97.40;;;;;;5036239;28;20393;-74
2022/12/22 15:03:05;;;;;;;5.30;1.63;;;21.30;97.10;;;;;;5033647;28;20076;-74
2022/12/22 15:05:35;;;;;;;4.43;1.48;;;20.60;97.60;;;;;;5033576;28;20037;-75
2022/12/22 15:08:01;;;;;;;5.40;1.70;;;20.10;98.20;;;;;;5042384;28;20111;-73
2022/12/22 15:10:36;;;;;;;4.70;1.30;;;20.40;98.00;;;;;;5038943;28;20167;-73
2022/12/22 15:13:06;;;;;;;6.47;1.85;;;20.80;97.70;;;;;;5046753;28;20037;-74
2022/12/22 15:15:34;;;;;;;5.75;1.13;;;20.90;97.30;;;;;;5034133;28;20041;-75
2022/12/22 15:18:00;;;;;;;5.53;1.50;;;21.00;97.00;;;;;;5036152;28;21091;-74
2022/12/22 15:20:27;;;;;;;6.15;1.90;;;20.40;97.40;;;;;;5036658;28;20047;-75
2022/12/22 15:22:54;;;;;;;4.35;1.30;;;19.70;98.30;;;;;;5035087;28;20033;-75
2022/12/22 15:25:24;;;;;;;5.03;1.60;;;19.70;97.80;;;;;;5033732;28;20041;-75
2022/12/22 15:27:50;;;;;;;4.85;1.33;;;20.50;97.10;;;;;;5056145;28;20404;-75
2022/12/22 15:30:19;;;;;;;4.38;1.30;;;20.20;97.30;;;;;;5030283;28;20162;-74
2022/12/22 15:32:45;;;;;;;5.78;1.70;;;20.30;97.20;;;;;;5035600;28;20033;-74
2022/12/22 15:35:17;;;;;;;4.07;1.08;;;20.10;97.00;;;;;;5035496;28;20044;-74
2022/12/22 15:37:43;;;;;;;6.47;1.27;;;20.20;97.20;;;;;;5032366;28;20041;-74
2022/12/22 15:40:18;;;;;;;5.10;1.40;;;20.30;97.40;;;;;;5047928;28;20069;-73
2022/12/22 15:42:45;;;;;;;4.97;1.33;;;20.20;97.30;;;;;;5057771;28;20037;-73
2022/12/22 15:45:12;;;;;;;6.45;1.38;;;20.10;97.50;;;;;;5050089;28;20045;-73
2022/12/22 15:47:39;;;;;;;6.22;1.27;;;20.00;97.80;;;;;;5042226;28;20048;-74
2022/12/22 15:50:06;;;;;;;6.28;1.52;;;19.60;97.90;;;;;;5047056;28;20071;-74
2022/12/22 15:52:32;;;;;;;5.28;1.30;;;19.50;98.30;;;;;;5029646;28;20037;-73
2022/12/22 15:54:59;;;;;;;6.68;1.15;;;19.10;98.70;;;;;;5036456;28;20042;-73
2022/12/22 15:57:25;;;;;;;4.93;1.27;;;18.80;98.90;;;;;;5039076;28;20033;-73
2022/12/22 15:59:50;;;;;;;5.93;1.52;;;18.70;99.20;;;;;;5034564;28;20044;-73
2022/12/22 16:02:16;;;;;;;6.70;1.55;;;18.60;99.40;;;;;;5028044;28;20123;-74
2022/12/22 16:04:42;;;;;;;3.80;1.33;;;18.40;99.60;;;;;;5039199;28;20416;-73
2022/12/22 16:07:11;;;;;;;4.38;1.25;;;18.20;99.90;;;;;;5052824;28;20041;-74
2022/12/22 16:09:41;;;;;;;3.75;1.00;;;18.00;99.90;;;;;;5032321;28;20072;-73
2022/12/22 16:12:18;;;;;;;4.88;1.63;;;17.90;99.90;;;;;;5032753;28;20045;-73
2022/12/22 16:14:51;;;;;;;4.07;1.00;;;17.70;99.90;;;;;;5031134;28;20041;-74
2022/12/22 16:17:28;;;;;;;6.75;1.40;;;17.60;99.90;;;;;;5035844;28;20033;-73
2022/12/22 16:19:54;;;;;;;2.97;1.02;;;17.50;99.90;;;;;;5034720;28;20385;-72
2022/12/22 16:22:29;;;;;;;2.95;1.23;;;17.50;99.90;;;;;;5032702;28;20052;-74
2022/12/22 16:24:56;;;;;;;4.07;1.10;;;17.50;99.90;;;;;;5035237;28;20040;-73
2022/12/22 16:27:22;;;;;;;;;;;17.40;99.90;;;;;;5031107;28;20119;-74
2022/12/22 16:29:51;;;;;;;4.63;1.45;;;17.30;99.90;;;;;;5044891;28;20032;-72
2022/12/22 16:32:23;;;;;;;5.85;1.10;;;17.30;99.90;;;;;;5040064;28;20080;-73
2022/12/22 16:34:49;;;;;;;3.92;1.35;;;17.30;99.90;;;;;;5049002;28;20076;-74
2022/12/22 16:37:16;;;;;;;4.32;1.42;;;17.20;99.90;;;;;;5031797;28;20477;-74
2022/12/22 16:39:43;;;;;;;4.28;1.30;;;17.10;99.90;;;;;;5044273;28;20084;-73
2022/12/22 16:42:13;;;;;;;5.22;1.40;;;17.10;99.90;;;;;;5039672;28;20044;-74
2022/12/22 16:44:41;;;;;;;6.60;1.75;;;17.00;99.90;;;;;;5031562;28;20041;-73